createdAt,value
2023-03-25T00:01:17.656Z,0.63
2023-03-25T00:03:51.336Z,0.50
2023-03-25T00:06:20.436Z,0.70
2023-03-25T00:09:25.501Z,0.70
2023-03-25T00:11:57.423Z,0.73
2023-03-25T00:14:43.058Z,1.33
2023-03-25T00:17:11.859Z,0.80
2023-03-25T00:19:41.850Z,0.80
2023-03-25T00:22:13.180Z,1.02
2023-03-25T00:24:42.596Z,0.90
2023-03-25T00:27:11.156Z,1.00
2023-03-25T00:29:39.811Z,0.80
2023-03-25T00:32:08.370Z,0.90
2023-03-25T00:34:42.286Z,0.80
2023-03-25T00:37:10.439Z,0.80
2023-03-25T00:39:38.662Z,1.00
2023-03-25T00:42:17.460Z,0.75
2023-03-25T00:44:46.677Z,0.80
2023-03-25T00:47:19.539Z,0.82
2023-03-25T00:49:51.116Z,0.88
2023-03-25T00:53:33.170Z,1.20
2023-03-25T00:56:11.068Z,1.00
2023-03-25T00:58:39.908Z,0.88
2023-03-25T01:01:14.244Z,0.80
2023-03-25T01:03:45.566Z,0.80
2023-03-25T01:06:24.677Z,1.17
2023-03-25T01:08:55.486Z,0.80
2023-03-25T01:11:29.734Z,1.05
2023-03-25T01:14:19.021Z,1.13
2023-03-25T01:16:47.124Z,0.82
2023-03-25T01:19:15.702Z,0.63
2023-03-25T01:21:45.485Z,0.73
2023-03-25T01:24:16.108Z,0.82
2023-03-25T01:26:46.258Z,0.75
2023-03-25T01:29:20.094Z,0.80
2023-03-25T01:31:56.766Z,0.45
2023-03-25T01:34:38.956Z,0.52
2023-03-25T01:37:18.219Z,0.35
2023-03-25T01:39:50.523Z,0.40
2023-03-25T01:42:20.650Z,0.40
2023-03-25T01:44:50.865Z,0.40
2023-03-25T01:47:23.338Z,0.40
2023-03-25T01:50:13.762Z,0.68
2023-03-25T01:53:19.480Z,0.50
2023-03-25T01:55:48.626Z,0.40
2023-03-25T01:58:21.057Z,0.40
2023-03-25T02:00:52.045Z,0.40
2023-03-25T02:03:24.928Z,0.40
2023-03-25T02:06:08.417Z,0.30
2023-03-25T02:08:42.658Z,0.45
2023-03-25T02:11:11.508Z,0.30
2023-03-25T02:13:42.974Z,0.28
2023-03-25T02:16:34.358Z,0.35
2023-03-25T02:19:08.094Z,0.40
2023-03-25T02:22:27.505Z,0.47
2023-03-25T02:25:12.328Z,0.40
2023-03-25T02:31:52.718Z,0.40
2023-03-25T02:38:41.800Z,0.47
2023-03-25T02:41:53.221Z,0.45
2023-03-25T02:45:23.933Z,0.40
2023-03-25T02:48:12.135Z,0.30
2023-03-25T02:50:58.286Z,0.43
2023-03-25T02:53:33.936Z,0.38
2023-03-25T02:56:26.907Z,0.52
2023-03-25T02:59:23.136Z,0.40
2023-03-25T03:02:19.221Z,0.40
2023-03-25T03:06:07.487Z,0.50
2023-03-25T03:08:59.875Z,0.28
2023-03-25T03:11:56.404Z,0.38
2023-03-25T03:15:03.074Z,0.50
2023-03-25T03:18:07.318Z,0.50
2023-03-25T03:21:38.698Z,0.40
2023-03-25T03:24:18.202Z,0.73
2023-03-25T03:27:05.063Z,0.65
2023-03-25T03:29:41.706Z,0.47
2023-03-25T03:32:19.948Z,0.40
2023-03-25T03:35:11.625Z,0.50
2023-03-25T03:38:04.881Z,0.40
2023-03-25T03:40:38.700Z,0.50
2023-03-25T03:43:40.654Z,0.40
2023-03-25T03:47:02.560Z,0.75
2023-03-25T03:49:56.543Z,0.22
2023-03-25T03:56:08.478Z,0.40
2023-03-25T03:58:45.660Z,0.40
2023-03-25T04:02:55.616Z,0.40
2023-03-25T04:06:22.642Z,0.30
2023-03-25T04:09:44.221Z,0.80
2023-03-25T04:12:21.332Z,0.47
2023-03-25T04:18:23.449Z,0.32
2023-03-25T04:21:32.585Z,0.40
2023-03-25T04:24:04.957Z,0.30
2023-03-25T04:26:34.267Z,0.57
2023-03-25T04:29:14.142Z,0.20
2023-03-25T04:31:50.221Z,0.30
2023-03-25T04:34:29.418Z,0.30
2023-03-25T04:37:05.285Z,0.30
2023-03-25T04:39:33.071Z,0.30
2023-03-25T04:42:03.928Z,0.30
2023-03-25T04:44:33.920Z,0.30
2023-03-25T04:47:03.438Z,0.40
2023-03-25T04:49:35.377Z,0.30
2023-03-25T04:52:12.910Z,0.30
2023-03-25T04:54:49.413Z,0.30
2023-03-25T04:57:17.078Z,0.30
2023-03-25T05:00:11.472Z,0.25
2023-03-25T05:03:37.505Z,0.50
2023-03-25T05:06:06.121Z,0.40
2023-03-25T05:08:43.439Z,0.20
2023-03-25T05:11:11.600Z,0.50
2023-03-25T05:13:51.105Z,0.40
2023-03-25T05:16:23.817Z,0.50
2023-03-25T05:18:54.710Z,0.47
2023-03-25T05:21:22.526Z,0.55
2023-03-25T05:27:41.041Z,0.50
2023-03-25T05:34:04.040Z,0.60
2023-03-25T05:36:57.925Z,0.77
2023-03-25T05:40:01.880Z,0.63
2023-03-25T05:42:30.370Z,0.60
2023-03-25T05:45:22.547Z,0.60
2023-03-25T05:53:41.696Z,0.40
2023-03-25T05:56:20.134Z,0.50
2023-03-25T05:58:50.685Z,0.40
2023-03-25T06:01:32.771Z,0.60
2023-03-25T06:04:02.245Z,0.50
2023-03-25T06:06:34.612Z,0.40
2023-03-25T06:09:03.305Z,0.38
2023-03-25T06:11:31.167Z,0.47
2023-03-25T06:14:02.356Z,0.52
2023-03-25T06:16:31.809Z,0.52
2023-03-25T06:19:00.837Z,0.40
2023-03-25T06:21:35.306Z,0.50
2023-03-25T06:24:06.640Z,0.50
2023-03-25T06:26:36.230Z,0.40
2023-03-25T06:29:06.476Z,0.40
2023-03-25T06:31:34.593Z,0.40
2023-03-25T06:34:02.703Z,0.60
2023-03-25T06:36:31.878Z,0.63
2023-03-25T06:39:02.385Z,0.50
2023-03-25T06:41:31.085Z,0.43
2023-03-25T06:44:12.063Z,0.50
2023-03-25T06:46:58.372Z,0.50
2023-03-25T06:49:39.670Z,1.45
2023-03-25T06:52:08.043Z,0.50
2023-03-25T06:54:39.100Z,0.70
2023-03-25T06:57:16.197Z,0.50
2023-03-25T06:59:44.170Z,1.05
2023-03-25T07:02:14.930Z,0.45
2023-03-25T07:04:48.019Z,0.60
2023-03-25T07:07:16.474Z,0.50
2023-03-25T07:09:48.568Z,0.40
2023-03-25T07:12:18.745Z,0.60
2023-03-25T07:14:57.890Z,0.60
2023-03-25T07:17:32.597Z,0.50
2023-03-25T07:20:03.693Z,0.50
2023-03-25T07:22:32.560Z,0.73
2023-03-25T07:25:00.134Z,0.80
2023-03-25T07:27:28.445Z,0.45
2023-03-25T07:30:05.082Z,0.47
2023-03-25T07:32:36.371Z,0.55
2023-03-25T07:35:27.702Z,0.77
2023-03-25T07:37:58.876Z,0.75
2023-03-25T07:40:28.841Z,0.52
2023-03-25T07:42:57.909Z,0.45
2023-03-25T07:45:58.295Z,0.50
2023-03-25T07:48:32.311Z,0.68
2023-03-25T07:51:01.874Z,0.50
2023-03-25T07:53:29.919Z,0.38
2023-03-25T07:55:57.693Z,0.52
2023-03-25T07:58:31.533Z,0.60
2023-03-25T08:01:02.939Z,0.60
2023-03-25T08:03:30.909Z,0.70
2023-03-25T08:06:02.192Z,1.10
2023-03-25T08:08:33.275Z,0.70
2023-03-25T08:11:06.961Z,0.63
2023-03-25T08:13:34.668Z,0.60
2023-03-25T08:16:02.411Z,0.57
2023-03-25T08:18:37.201Z,0.43
2023-03-25T08:21:06.460Z,0.50
2023-03-25T08:23:37.256Z,0.60
2023-03-25T08:26:06.179Z,0.80
2023-03-25T08:28:36.534Z,1.17
2023-03-25T08:31:09.139Z,1.17
2023-03-25T08:33:43.882Z,1.25
2023-03-25T08:36:20.181Z,1.23
2023-03-25T08:38:53.665Z,0.98
2023-03-25T08:41:25.410Z,1.15
2023-03-25T08:44:31.760Z,0.88
2023-03-25T08:47:00.025Z,1.10
2023-03-25T08:49:27.961Z,1.15
2023-03-25T08:51:58.556Z,1.00
2023-03-25T08:54:35.797Z,0.98
2023-03-25T08:57:04.991Z,1.10
2023-03-25T09:00:43.958Z,0.95
2023-03-25T09:09:40.212Z,1.10
2023-03-25T09:12:17.989Z,1.30
2023-03-25T09:14:54.697Z,1.23
2023-03-25T09:17:29.194Z,0.95
2023-03-25T09:19:59.594Z,0.90
2023-03-25T09:22:27.275Z,1.20
2023-03-25T09:24:56.047Z,1.20
2023-03-25T09:27:26.589Z,0.98
2023-03-25T09:29:55.443Z,0.93
2023-03-25T09:32:24.421Z,1.13
2023-03-25T09:34:53.455Z,1.00
2023-03-25T09:37:23.655Z,1.08
2023-03-25T09:40:21.875Z,0.80
2023-03-25T09:43:17.268Z,1.17
2023-03-25T09:45:50.997Z,0.88
2023-03-25T09:48:38.601Z,0.80
2023-03-25T09:51:24.737Z,0.80
2023-03-25T09:54:02.293Z,1.00
2023-03-25T09:56:36.392Z,1.00
2023-03-25T09:59:17.866Z,1.02
2023-03-25T10:02:01.810Z,0.70
2023-03-25T10:04:47.358Z,0.68
2023-03-25T10:07:35.605Z,0.77
2023-03-25T10:10:27.173Z,0.60
2023-03-25T10:13:21.301Z,0.75
2023-03-25T10:16:11.125Z,0.60
2023-03-25T10:18:46.854Z,0.57
2023-03-25T10:21:25.660Z,0.40
2023-03-25T10:24:22.683Z,0.30
2023-03-25T10:26:58.559Z,0.22
2023-03-25T10:29:36.783Z,0.40
2023-03-25T10:32:11.407Z,0.30
2023-03-25T10:34:46.747Z,0.40
2023-03-25T10:37:21.655Z,0.22
2023-03-25T10:39:50.010Z,0.20
2023-03-25T10:42:34.990Z,0.22
2023-03-25T10:45:01.848Z,0.50
2023-03-25T10:47:33.351Z,0.40
2023-03-25T10:50:00.510Z,0.30
2023-03-25T10:52:27.442Z,0.68
2023-03-25T10:54:56.414Z,0.57
2023-03-25T10:57:28.133Z,0.40
2023-03-25T11:00:18.286Z,0.30
2023-03-25T11:02:46.478Z,0.35
2023-03-25T11:05:18.972Z,0.45
2023-03-25T11:07:55.902Z,0.50
2023-03-25T11:10:26.208Z,0.40
2023-03-25T11:12:54.182Z,0.50
2023-03-25T11:15:24.346Z,0.60
2023-03-25T11:18:04.959Z,0.30
2023-03-25T11:20:40.064Z,0.40
2023-03-25T11:23:16.108Z,0.70
2023-03-25T11:25:43.642Z,0.88
2023-03-25T11:28:21.968Z,0.50
2023-03-25T11:31:07.853Z,0.30
2023-03-25T11:33:36.912Z,0.60
2023-03-25T11:36:16.656Z,0.40
2023-03-25T11:38:46.976Z,0.50
2023-03-25T11:41:14.649Z,0.20
2023-03-25T11:43:41.431Z,0.40
2023-03-25T11:46:08.979Z,0.30
2023-03-25T11:48:40.060Z,0.20
2023-03-25T11:51:13.430Z,0.35
2023-03-25T11:53:45.752Z,0.30
2023-03-25T11:56:17.456Z,0.30
2023-03-25T11:58:44.136Z,0.30
2023-03-25T12:01:30.107Z,0.40
2023-03-25T12:04:08.514Z,0.28
2023-03-25T12:06:35.365Z,0.20
2023-03-25T12:09:09.760Z,0.43
2023-03-25T12:11:55.019Z,0.50
2023-03-25T12:14:27.398Z,0.50
2023-03-25T12:17:00.578Z,0.52
2023-03-25T12:19:45.614Z,0.30
2023-03-25T12:22:26.137Z,0.93
2023-03-25T12:25:17.299Z,0.80
2023-03-25T12:27:56.532Z,0.52
2023-03-25T12:30:45.006Z,0.57
2023-03-25T12:33:36.603Z,0.60
2023-03-25T12:36:28.295Z,0.68
2023-03-25T12:39:51.295Z,0.50
2023-03-25T12:42:33.830Z,0.68
2023-03-25T12:45:32.928Z,0.60
2023-03-25T12:48:19.841Z,0.70
2023-03-25T12:50:46.708Z,0.60
2023-03-25T12:53:36.822Z,0.50
2023-03-25T12:56:06.791Z,0.70
2023-03-25T12:58:52.248Z,0.63
2023-03-25T13:01:23.328Z,0.40
2023-03-25T13:04:07.585Z,0.50
2023-03-25T13:06:53.435Z,0.30
2023-03-25T13:09:26.865Z,0.40
2023-03-25T13:12:03.616Z,0.43
2023-03-25T13:14:41.441Z,0.22
2023-03-25T13:17:18.550Z,0.28
2023-03-25T13:19:45.712Z,0.20
2023-03-25T13:22:24.006Z,0.32
2023-03-25T13:25:04.667Z,0.40
2023-03-25T13:27:35.003Z,0.28
2023-03-25T13:30:03.759Z,0.40
2023-03-25T13:32:47.854Z,0.50
2023-03-25T13:35:27.769Z,0.65
2023-03-25T13:38:01.135Z,0.20
2023-03-25T13:40:46.033Z,0.50
2023-03-25T13:43:17.386Z,0.38
2023-03-25T13:46:05.254Z,0.30
2023-03-25T13:48:40.612Z,0.40
2023-03-25T13:51:08.124Z,0.50
2023-03-25T13:53:59.759Z,0.43
2023-03-25T13:57:01.735Z,0.38
2023-03-25T13:59:41.930Z,0.40
2023-03-25T14:02:25.454Z,0.30
2023-03-25T14:05:09.367Z,0.30
2023-03-25T14:07:49.753Z,0.30
2023-03-25T14:10:24.425Z,0.40
2023-03-25T14:12:55.310Z,0.47
2023-03-25T14:15:26.532Z,0.35
2023-03-25T14:17:56.126Z,0.60
2023-03-25T14:20:35.738Z,0.22
2023-03-25T14:23:06.263Z,0.30
2023-03-25T14:25:43.582Z,0.30
2023-03-25T14:28:19.723Z,0.50
2023-03-25T14:31:10.380Z,0.60
2023-03-25T14:34:05.041Z,0.38
2023-03-25T14:36:56.078Z,0.38
2023-03-25T14:39:30.220Z,0.30
2023-03-25T14:42:07.353Z,0.30
2023-03-25T14:44:41.328Z,0.40
2023-03-25T14:47:16.289Z,0.30
2023-03-25T14:49:54.546Z,0.38
2023-03-25T14:52:31.821Z,0.40
2023-03-25T14:55:02.074Z,0.35
2023-03-25T14:57:39.025Z,0.40
2023-03-25T15:00:13.610Z,0.40
2023-03-25T15:02:50.262Z,0.30
2023-03-25T15:05:36.021Z,0.38
2023-03-25T15:08:25.868Z,0.40
2023-03-25T15:11:25.474Z,0.43
2023-03-25T15:13:58.023Z,0.50
2023-03-25T15:16:45.988Z,0.40
2023-03-25T15:19:14.813Z,0.60
2023-03-25T15:22:10.900Z,0.40
2023-03-25T15:24:40.603Z,0.55
2023-03-25T15:27:23.980Z,0.60
2023-03-25T15:29:59.709Z,0.60
2023-03-25T15:32:52.746Z,0.50
2023-03-25T15:35:50.564Z,0.47
2023-03-25T15:38:47.539Z,0.32
2023-03-25T15:41:42.110Z,0.40
2023-03-25T15:44:39.697Z,0.43
2023-03-25T15:47:36.864Z,0.40
2023-03-25T15:50:49.721Z,0.70
2023-03-25T15:53:46.685Z,0.40
2023-03-25T15:56:21.910Z,0.50
2023-03-25T15:59:12.508Z,0.50
2023-03-25T16:01:43.597Z,0.22
2023-03-25T16:04:30.551Z,0.47
2023-03-25T16:06:59.051Z,0.85
2023-03-25T16:09:28.968Z,0.60
2023-03-25T16:12:00.600Z,0.30
2023-03-25T16:14:33.018Z,0.40
2023-03-25T16:17:02.064Z,0.30
2023-03-25T16:19:51.255Z,0.32
2023-03-25T16:22:21.518Z,0.50
2023-03-25T16:24:50.274Z,0.50
2023-03-25T16:27:24.690Z,0.55
2023-03-25T16:29:53.955Z,0.50
2023-03-25T16:32:23.753Z,0.70
2023-03-25T16:34:51.456Z,0.60
2023-03-25T16:37:19.100Z,0.50
2023-03-25T16:39:51.406Z,0.60
2023-03-25T16:42:24.575Z,0.50
2023-03-25T16:44:51.702Z,0.43
2023-03-25T16:47:20.526Z,0.70
2023-03-25T16:49:48.851Z,0.60
2023-03-25T16:52:19.658Z,0.30
2023-03-25T16:54:52.403Z,0.70
2023-03-25T16:57:22.730Z,0.40
2023-03-25T16:59:52.276Z,0.40
2023-03-25T17:02:31.192Z,0.82
2023-03-25T17:05:16.751Z,0.52
2023-03-25T17:07:43.911Z,0.60
2023-03-25T17:10:27.460Z,0.40
2023-03-25T17:13:08.874Z,0.98
2023-03-25T17:15:37.237Z,0.47
2023-03-25T17:18:13.142Z,0.68
2023-03-25T17:20:42.909Z,0.60
2023-03-25T17:23:41.990Z,0.50
2023-03-25T17:26:11.552Z,0.43
2023-03-25T17:28:42.826Z,0.40
2023-03-25T17:31:30.655Z,0.90
2023-03-25T17:34:10.494Z,0.50
2023-03-25T17:36:45.349Z,0.50
2023-03-25T17:39:19.329Z,0.68
2023-03-25T17:41:46.639Z,0.40
2023-03-25T17:44:17.079Z,0.80
2023-03-25T17:46:44.148Z,0.70
2023-03-25T17:49:19.510Z,0.80
2023-03-25T17:51:46.639Z,0.60
2023-03-25T17:54:14.618Z,0.70
2023-03-25T17:56:41.968Z,0.50
2023-03-25T17:59:23.923Z,0.77
2023-03-25T18:01:50.656Z,0.50
2023-03-25T18:04:20.730Z,0.57
2023-03-25T18:06:47.625Z,0.90
2023-03-25T18:09:17.366Z,0.73
2023-03-25T18:11:48.802Z,0.40
2023-03-25T18:14:15.971Z,0.50
2023-03-25T18:16:42.947Z,0.60
2023-03-25T18:19:22.676Z,0.60
2023-03-25T18:21:49.661Z,0.80
2023-03-25T18:24:16.354Z,0.80
2023-03-25T18:26:44.412Z,0.70
2023-03-25T18:29:24.117Z,0.90
2023-03-25T18:31:51.989Z,0.60
2023-03-25T18:34:18.907Z,0.75
2023-03-25T18:36:45.585Z,0.70
2023-03-25T18:39:18.035Z,0.80
2023-03-25T18:41:44.829Z,0.65
2023-03-25T18:44:11.992Z,0.60
2023-03-25T18:46:38.956Z,0.60
2023-03-25T18:49:12.138Z,0.70
2023-03-25T18:51:38.953Z,0.70
2023-03-25T18:54:05.695Z,0.60
2023-03-25T18:56:32.466Z,0.75
2023-03-25T18:58:59.105Z,0.80
2023-03-25T19:01:26.599Z,0.50
2023-03-25T19:03:53.283Z,0.65
2023-03-25T19:06:19.942Z,0.60
2023-03-25T19:08:47.271Z,0.50
2023-03-25T19:11:20.679Z,0.68
2023-03-25T19:13:48.211Z,0.80
2023-03-25T19:16:15.147Z,0.63
2023-03-25T19:18:41.934Z,0.70
2023-03-25T19:21:08.816Z,0.60
2023-03-25T19:23:36.458Z,0.57
2023-03-25T19:26:04.077Z,0.70
2023-03-25T19:28:30.740Z,0.60
2023-03-25T19:31:00.981Z,0.40
2023-03-25T19:33:31.035Z,0.90
2023-03-25T19:36:01.752Z,0.63
2023-03-25T19:38:30.139Z,0.40
2023-03-25T19:41:05.249Z,0.40
2023-03-25T19:43:31.922Z,0.52
2023-03-25T19:45:59.343Z,0.93
2023-03-25T19:48:27.080Z,0.55
2023-03-25T19:50:57.148Z,0.85
2023-03-25T19:53:24.841Z,0.60
2023-03-25T19:55:52.606Z,0.55
2023-03-25T19:58:22.709Z,0.40
2023-03-25T20:00:49.951Z,0.68
2023-03-25T20:03:16.640Z,0.63
2023-03-25T20:05:43.430Z,0.55
2023-03-25T20:08:10.090Z,0.60
2023-03-25T20:10:38.763Z,0.50
2023-03-25T20:13:06.075Z,0.70
2023-03-25T20:15:33.194Z,0.60
2023-03-25T20:17:59.948Z,0.93
2023-03-25T20:20:26.669Z,0.82
2023-03-25T20:22:53.483Z,0.60
2023-03-25T20:25:20.462Z,0.60
2023-03-25T20:27:47.571Z,0.55
2023-03-25T20:30:17.671Z,0.85
2023-03-25T20:32:47.539Z,0.68
2023-03-25T20:35:16.779Z,0.73
2023-03-25T20:37:45.141Z,0.80
2023-03-25T20:40:15.500Z,0.52
2023-03-25T20:42:44.473Z,0.77
2023-03-25T20:45:13.861Z,0.50
2023-03-25T20:47:41.682Z,0.73
2023-03-25T20:50:10.126Z,0.43
2023-03-25T20:52:38.161Z,0.85
2023-03-25T20:55:05.816Z,0.90
2023-03-25T20:57:33.226Z,0.80
2023-03-25T20:59:59.951Z,0.93
2023-03-25T21:02:27.093Z,0.55
2023-03-25T21:04:56.884Z,0.50
2023-03-25T21:07:27.947Z,0.43
2023-03-25T21:09:55.319Z,0.60
2023-03-25T21:12:29.804Z,0.80
2023-03-25T21:15:04.698Z,0.52
2023-03-25T21:17:31.388Z,0.98
2023-03-25T21:19:58.165Z,0.60
2023-03-25T21:22:24.941Z,0.75
2023-03-25T21:24:51.535Z,0.40
2023-03-25T21:27:18.190Z,0.98
2023-03-25T21:29:46.187Z,0.90
2023-03-25T21:32:14.034Z,0.60
2023-03-25T21:34:40.818Z,0.60
2023-03-25T21:37:07.481Z,1.33
2023-03-25T21:39:35.019Z,0.68
2023-03-25T21:42:09.911Z,0.50
2023-03-25T21:44:38.080Z,0.52
2023-03-25T21:47:08.831Z,0.60
2023-03-25T21:49:41.764Z,0.70
2023-03-25T21:52:13.742Z,0.90
2023-03-25T21:54:43.739Z,0.60
2023-03-25T21:57:13.599Z,0.70
2023-03-25T21:59:43.230Z,0.70
2023-03-25T22:05:17.055Z,0.80
2023-03-25T22:07:47.808Z,0.50
2023-03-25T22:10:15.876Z,0.80
2023-03-25T22:12:43.644Z,0.73
2023-03-25T22:15:12.140Z,0.75
2023-03-25T22:17:50.535Z,0.80
2023-03-25T22:20:41.473Z,0.80
2023-03-25T22:23:22.466Z,0.63
2023-03-25T22:25:55.223Z,0.50
2023-03-25T22:28:47.831Z,0.70
2023-03-25T22:31:21.684Z,0.40
2023-03-25T22:33:49.537Z,0.40
2023-03-25T22:36:25.974Z,0.40
2023-03-25T22:39:03.058Z,0.40
2023-03-25T22:41:31.853Z,0.50
2023-03-25T22:43:59.881Z,0.50
2023-03-25T22:46:28.879Z,0.60
2023-03-25T22:49:16.123Z,0.50
2023-03-25T22:51:44.610Z,0.50
2023-03-25T22:54:26.660Z,0.60
2023-03-25T22:57:20.783Z,0.40
2023-03-25T23:00:02.794Z,0.60
2023-03-25T23:02:31.350Z,0.50
2023-03-25T23:05:41.612Z,0.70
2023-03-25T23:08:26.338Z,1.00
2023-03-25T23:11:35.312Z,0.60
2023-03-25T23:14:17.261Z,0.73
2023-03-25T23:17:02.821Z,0.75
2023-03-25T23:19:32.220Z,0.77
2023-03-25T23:22:00.498Z,0.95
2023-03-25T23:24:28.147Z,0.50
2023-03-25T23:26:57.254Z,0.80
2023-03-25T23:29:36.289Z,1.20
2023-03-25T23:32:42.440Z,1.00
2023-03-25T23:35:15.642Z,1.10
2023-03-25T23:38:15.832Z,0.75
2023-03-25T23:41:33.268Z,0.80
2023-03-25T23:44:18.052Z,0.90
2023-03-25T23:50:33.479Z,0.82
2023-03-25T23:53:37.961Z,0.80
2023-03-25T23:55:58.297Z,0.90
2023-03-25T23:58:26.681Z,0.85
